COYOTE (LAKE MENDOCINO) (COY)

Elevation: 720' · RUSSIAN R basin · Operator: US Army Corps of Engineers

Provisional data, subject to change.
Query executed Sunday at 22:16:53   clock

Select a sensor type for a plot of data.
Note: Reservoir Flows are daily averages.

Earlier

Date RES ELE    STORAGE    RES CHG    TOC STO    ABV TOC    OUTFLOW    INFLOW    PPT INC    TEMP MN    TEMP MX    EVP PAN   
 FEET   AF   AF   AF   AF   CFS   CFS   INCHES   DEG F   DEG F   INCHES  
04/25/2015 732.03 59491 -128 86370 -26879 171 114 0.08 8 19 0.18
04/26/2015 731.91 59300 -191 86370 -27070 172 85 0.02 5 23 0.20
04/27/2015 731.81 59141 -159 86370 -27229 176 107 0.06 7 32 0.26
04/28/2015 731.70 58966 -175 86370 -27404 176 98 0.00 9 25 0.23
04/29/2015 731.59 58792 -- 86370 -- 177 95 0.00 9 15 0.13
04/30/2015 731.47 58602 -190 86370 -27768 182 102 0.01 12 33 0.34
05/01/2015 731.36 58428 -174 86370 -27942 166 91 0.00 8 34 0.27
05/02/2015 731.35 58412 -- 86370 -27958 78 83 0.00 8 31 0.27
05/03/2015 731.34 58396 -- 86370 -27974 74 78 0.00 7 30 0.25
05/04/2015 731.34 58396 0 86370 -27974 74 85 0.00 8 27 0.23
05/05/2015 731.32 58364 -- 86370 -28006 72 66 0.00 7 23 0.22
05/06/2015 731.31 58348 -16 86370 -28022 73 76 0.00 6 23 0.24
05/07/2015 731.32 58364 16 86370 -28006 76 95 0.00 7 24 0.24
05/08/2015 731.31 58348 -16 86370 -28022 76 79 0.00 7 27 0.25
05/09/2015 731.31 58348 0 86370 -28022 74 86 0.00 7 28 0.25
05/10/2015 731.30 58333 -15 86370 -28037 75 79 0.00 7 27 0.25
05/11/2015 731.30 58333 0 86370 -28037 75 84 0.00 9 20 0.20
05/12/2015 731.29 58317 -16 86370 -28053 75 77 0.00 6 19 0.22
05/13/2015 731.27 58285 -32 86370 -28085 76 69 0.00 7 21 0.21
05/14/2015 731.27 58285 0 86370 -28085 75 82 0.13 6 22 0.15
05/15/2015 731.31 58348 63 86370 -28022 74 116 0.03 8 21 0.21
05/16/2015 731.31 58348 0 86370 -28022 74 85 0.02 7 24 0.23
05/17/2015 731.31 58348 0 86370 -28022 74 84 0.00 9 25 0.22
05/18/2015 731.31 58348 0 86370 -28022 74 83 0.00 10 24 0.18
05/19/2015 731.29 58317 -31 86370 -28053 74 68 0.00 9 24 0.21
05/20/2015 731.27 58285 -32 86370 -28085 75 66 0.00 8 24 0.17
05/21/2015 731.22 58206 -79 86370 -28164 76 45 0.00 10 23 0.20
05/22/2015 731.19 58159 -47 86370 -28211 77 63 0.00 12 23 0.22
05/23/2015 731.15 58096 -63 86370 -28274 77 56 0.00 11 25 0.24
05/24/2015 -- -- -- -- -- -- -- -- -- -- --

Later | Latest

Warning! This data is preliminary and subject to revision.

Show COY Map | Plot COY Data | 1 Month COY Data | Real-Time COY Data | COY Info